• Join FlightAware (Why Join?)
  • Login
  • US Flag 
08:30PM EDT


 

Airport Tracker/Info


-or-


 

Live Flight TrackerFlight Track Log ✈ N717AN ✈ 20-Jul-2013 ✈ KJFK - EGLL / LHR

Flight Track Log - Related Links

Times and Time Zones

All times are in EDT time to prevent confusion due to time zone crossing. See the N717AN flight status page for this flight to view local times or setup timezone preferences in your user account.

Time Position Orientation Groundspeed Altitude Reporting Facility
EDT Latitude Longitude Course Direction KTS MPH feet Rate Location/Type
08:55PM 40.6500 -73.7970 North 16 18  Level FlightAware
08:55PM 40.6510 -73.7960 37° Northeast 18 21  Level FlightAware
08:56PM 40.6520 -73.7930 66° East 33 38  Level FlightAware
08:56PM 40.6520 -73.7920 90° East 33 38  Level FlightAware
08:56PM 40.6520 -73.7910 90° East 27 31  Level FlightAware
08:59PM 40.8502 -73.5916 21° North  Level FlightAware Approximate
09:00PM 40.9460 -73.5040 37° Northeast  Level FlightAware Approximate
09:01PM 41.0462 -73.4117 33° Northeast  Level FlightAware Approximate
09:02PM 41.1468 -73.3198 37° Northeast  Level FlightAware Approximate
09:03PM 41.2506 -73.2353 33° Northeast  Level FlightAware Approximate
09:04PM 41.3531 -73.1469 37° Northeast  Level FlightAware Approximate
09:05PM 41.4223 -73.0275 62° Northeast  Level FlightAware Approximate
09:06PM 41.4799 -72.8838 62° Northeast  Level FlightAware Approximate
09:07PM 41.5442 -72.7478 62° Northeast  Level FlightAware Approximate
09:08PM 41.6001 -72.6055 51° Northeast  Level FlightAware Approximate
09:09PM 41.6786 -72.4881 37° Northeast  Level FlightAware Approximate
09:10PM 41.7734 -72.3855 45° Northeast  Level FlightAware Approximate
09:11PM 41.8713 -72.2889 33° Northeast  Level FlightAware Approximate
09:12PM 41.9667 -72.1874 43° Northeast  Level FlightAware Approximate
09:12PM 40.6510 -73.7880 90° East 22 25  Level FlightAware
09:13PM 40.6520 -73.7860 57° Northeast 21 24  Level FlightAware
09:14PM 40.6530 -73.7850 37° Northeast 24 28  Level FlightAware
09:15PM 40.6540 -73.7840 37° Northeast 25 29  Level FlightAware
09:15PM 40.6540 -73.7830 90° East 29 33  Level FlightAware
09:15PM 40.6550 -73.7790 72° East 29 33  Level FlightAware
09:16PM 40.6530 -73.7800 201° Southwest 18 21  Level FlightAware
09:16PM 40.6520 -73.7770 114° Southeast 20 23  Level FlightAware
09:17PM 40.6500 -73.7730 123° Southeast 27 31  Level FlightAware
09:19PM 40.8065 -73.6134 21° North  Level FlightAware Approximate
09:20PM 40.9087 -73.5413 37° Northeast  Level FlightAware Approximate
09:21PM 41.0072 -73.4458 33° Northeast  Level FlightAware Approximate
09:22PM 41.1091 -73.3566 33° Northeast  Level FlightAware Approximate
09:23PM 41.2123 -73.2710 37° Northeast  Level FlightAware Approximate
09:24PM 41.3139 -73.1810 33° Northeast  Level FlightAware Approximate
09:25PM 41.4003 -73.0826 62° Northeast  Level FlightAware Approximate
09:26PM 41.4578 -72.9389 62° Northeast  Level FlightAware Approximate
09:27PM 41.5222 -72.8029 62° Northeast  Level FlightAware Approximate
09:28PM 41.5798 -72.6590 62° Northeast  Level FlightAware Approximate
09:29PM 41.6411 -72.5256 37° Northeast  Level FlightAware Approximate
09:30PM 41.7390 -72.4277 37° Northeast  Level FlightAware Approximate
09:31PM 41.8319 -72.3227 33° Northeast  Level FlightAware Approximate
09:32PM 41.9325 -72.2303 43° Northeast  Level FlightAware Approximate
09:33PM 42.0256 -72.1244 37° Northeast  Level FlightAware Approximate
09:34PM 42.1221 -72.0236 39° Northeast  Level FlightAware Approximate
09:35PM 42.2174 -71.9206 39° Northeast  Level FlightAware Approximate
09:36PM 42.3126 -71.8172 39° Northeast  Level FlightAware Approximate
09:37PM 42.4078 -71.7136 39° Northeast  Level FlightAware Approximate
09:38PM 42.5107 -71.6010 39° Northeast  Level FlightAware Approximate
09:39PM 42.6135 -71.4880 39° Northeast  Level FlightAware Approximate
09:40PM 42.7162 -71.3747 39° Northeast  Level FlightAware Approximate
09:41PM 42.8187 -71.2610 39° Northeast  Level FlightAware Approximate
09:42PM 42.9212 -71.1469 39° Northeast  Level FlightAware Approximate
09:43PM 43.0244 -71.0337 39° Northeast  Level FlightAware Approximate
09:44PM 43.1275 -70.9204 39° Northeast  Level FlightAware Approximate
09:45PM 43.2305 -70.8067 39° Northeast  Level FlightAware Approximate
09:46PM 43.3335 -70.6926 39° Northeast  Level FlightAware Approximate
09:47PM 43.4374 -70.5802 35° Northeast  Level FlightAware Approximate
09:48PM 43.5460 -70.4761 35° Northeast  Level FlightAware Approximate
09:48PM 40.6490 -73.7710 143° Southeast 27 31  Level FlightAware
09:49PM 40.6490 -73.7690 90° East 14 16 60 Level FlightAware
09:52PM 40.8739 -73.5690 57° Northeast  Level FlightAware Approximate
09:52PM 40.6500 -73.7680 57° Northeast 17 20  Level FlightAware
09:54PM 40.6500 -73.7670 90° East 12 14 180 Level FlightAware
09:54PM 40.6490 -73.7660 143° Southeast 13 15 240 Level FlightAware
09:55PM 40.6490 -73.7650 90° East 28 32 300 Level FlightAware
09:55PM 40.6480 -73.7650 180° South 360 Level FlightAware
09:57PM 40.6470 -73.7660 217° Southwest 51 59 480 Level FlightAware
09:57PM 40.6370 -73.7740 211° Southwest 155 178 1,200 Level FlightAware
09:57PM 40.6170 -73.7890 210° Southwest 187 215 1,000 1,920 Climbing FlightAware
09:58PM 40.5940 -73.8040 203° Southwest 212 244 1,800 1,500 Climbing FlightAware
09:58PM 40.5650 -73.7930 164° South 257 296 2,400 1,320 Climbing FlightAware
09:59PM 40.5540 -73.7710 123° Southeast 277 319 2,800 1,860 Climbing FlightAware
09:59PM 40.5500 -73.7500 104° East 287 330 3,300 2,700 Climbing FlightAware
09:59PM 40.5560 -73.7040 80° East 288 331 4,600 3,000 Climbing FlightAware
09:59PM 40.5590 -73.6880 76° East 284 327 5,100 2,760 Climbing FlightAware
10:00PM 40.5790 -73.6440 59° Northeast 287 330 6,400 2,460 Climbing FlightAware
10:00PM 40.5960 -73.6300 32° Northeast 289 333 7,000 2,460 Climbing FlightAware
10:00PM 40.6187 -73.6131 29° Northeast 293 337 7,800 2,400 Climbing FlightAware ADS-B
10:01PM 40.6414 -73.5967 29° Northeast 300 345 8,500 2,340 Climbing FlightAware ADS-B
10:01PM 40.6682 -73.5778 28° Northeast 307 353 9,400 2,520 Climbing FlightAware ADS-B
10:02PM 40.6929 -73.5592 30° Northeast 309 356 10,300 1,740 Climbing FlightAware ADS-B
10:02PM 40.7521 -73.5157 29° Northeast 343 395 11,300 1,260 Climbing FlightAware ADS-B
10:03PM 40.8010 -73.4860 25° Northeast 385 443 11,900 1,740 Climbing FlightAware
10:03PM 40.8745 -73.4430 24° Northeast 409 471 13,500 2,100 Climbing FlightAware ADS-B
10:04PM 40.9370 -73.4063 24° Northeast 430 495 14,600 2,400 Climbing FlightAware ADS-B
10:05PM 40.9904 -73.3730 25° Northeast 432 497 16,100 2,580 Climbing FlightAware ADS-B
10:05PM 41.0680 -73.3267 24° Northeast 443 510 17,700 2,220 Climbing FlightAware ADS-B
10:06PM 41.1301 -73.2899 24° Northeast 441 507 18,900 2,520 Climbing FlightAware ADS-B
10:06PM 41.1985 -73.2478 25° Northeast 447 514 20,700 2,340 Climbing FlightAware ADS-B
10:07PM 41.2612 -73.2098 24° Northeast 453 521 21,600 1,920 Climbing FlightAware ADS-B
10:07PM 41.3235 -73.1726 24° Northeast 461 531 22,800 1,980 Climbing FlightAware ADS-B
10:08PM 41.3498 -73.1550 27° Northeast 468 539 23,100 1,500 Climbing FlightAware ADS-B
10:08PM 41.3682 -73.1380 35° Northeast 474 545 23,400 1,680 Climbing FlightAware ADS-B
10:08PM 41.4049 -73.0856 47° Northeast 487 560 24,100 1,500 Climbing FlightAware ADS-B
10:09PM 41.4482 -72.9902 59° Northeast 493 567 24,900 1,380 Climbing FlightAware ADS-B
10:10PM 41.5021 -72.8736 58° Northeast 509 586 26,000 1,440 Climbing FlightAware ADS-B
10:10PM 41.5171 -72.8541 44° Northeast 510 587 26,200 1,500 Climbing FlightAware ADS-B
10:10PM 41.5880 -72.7790 38° Northeast 513 590 27,200 300 Climbing FlightAware
10:13PM 41.8320 -72.5230 38° Northeast 514 592 27,300 1,560 Climbing FlightAware
10:14PM 41.9690 -72.3920 35° Northeast 523 602 32,300 3,840 Climbing FlightAware
10:14PM 42.0580 -72.3050 36° Northeast 521 600 33,000 480 Climbing FlightAware
10:15PM 42.1360 -72.2280 36° Northeast 522 601 33,000  Level FlightAware
10:16PM 42.2260 -72.1390 36° Northeast 524 603 33,000  Level FlightAware
10:17PM 42.3070 -72.0590 36° Northeast 524 603 33,000  Level FlightAware
10:17PM 42.3760 -71.9910 36° Northeast 525 604 33,000  Level FlightAware
10:18PM 42.4630 -71.9040 36° Northeast 527 606 33,000  Level FlightAware
10:19PM 42.5430 -71.8240 36° Northeast 526 605 33,000  Level FlightAware
10:19PM 42.6160 -71.7510 36° Northeast 526 605 33,000  Level FlightAware
10:20PM 42.7050 -71.6610 37° Northeast 527 606 33,000  Level FlightAware
10:21PM 42.7910 -71.5750 36° Northeast 536 617 33,000  Level FlightAware
10:21PM 42.8800 -71.4840 37° Northeast 538 619 33,000  Level FlightAware
10:22PM 42.9490 -71.4130 37° Northeast 530 610 33,000  Level FlightAware
10:23PM 43.0180 -71.3440 36° Northeast 530 610 33,000  Level FlightAware
10:23PM 43.1060 -71.2540 37° Northeast 531 611 33,000  Level FlightAware
10:24PM 43.1860 -71.1720 37° Northeast 539 620 33,000  Level FlightAware
10:25PM 43.2690 -71.0860 37° Northeast 541 623 33,000  Level FlightAware
10:25PM 43.3480 -71.0040 37° Northeast 541 623 33,000  Level FlightAware
10:26PM 43.4290 -70.9210 37° Northeast 544 626 33,000  Level FlightAware
10:27PM 43.5170 -70.8280 37° Northeast 544 626 33,000 120 Level FlightAware
10:27PM 43.5990 -70.7430 37° Northeast 548 631 33,200 840 Climbing FlightAware
10:28PM 43.6950 -70.6420 37° Northeast 547 629 34,300 1,200 Climbing FlightAware
10:29PM 43.7730 -70.5600 37° Northeast 544 626 35,000 480 Climbing FlightAware
10:30PM 43.8650 -70.4630 37° Northeast 544 626 35,000  Level FlightAware
10:30PM 43.9460 -70.3770 37° Northeast 545 627 35,000  Level FlightAware
10:31PM 44.0220 -70.2960 37° Northeast 546 628 35,000  Level FlightAware
10:32PM 44.1140 -70.1980 37° Northeast 549 632 35,000  Level FlightAware
10:32PM 44.2030 -70.1030 37° Northeast 550 633 35,000  Level FlightAware
10:33PM 44.2660 -70.0350 38° Northeast 551 634 35,000  Level FlightAware
10:34PM 44.3560 -69.9380 38° Northeast 555 639 35,000  Level FlightAware
10:34PM 44.4360 -69.8500 38° Northeast 555 639 35,000  Level FlightAware
10:35PM 44.5070 -69.7730 38° Northeast 555 639 35,000  Level FlightAware
10:36PM 44.5960 -69.6760 38° Northeast 558 642 35,000  Level FlightAware
10:36PM 44.6850 -69.5780 38° Northeast 561 646 35,000  Level FlightAware
10:37PM 44.7780 -69.4760 38° Northeast 561 646 35,000  Level FlightAware
10:38PM 44.8610 -69.3850 38° Northeast 563 648 35,000  Level FlightAware
10:38PM 44.9310 -69.3070 38° Northeast 564 649 35,000  Level FlightAware
10:39PM 45.0230 -69.2050 38° Northeast 566 651 35,000  Level FlightAware
10:40PM 45.1040 -69.1140 38° Northeast 568 654 35,000  Level FlightAware
10:40PM 45.1950 -69.0120 38° Northeast 569 655 35,000  Level FlightAware
10:41PM 45.2870 -68.9090 38° Northeast 570 656 35,000  Level FlightAware
10:42PM 45.3690 -68.8160 39° Northeast 572 658 35,000  Level FlightAware
10:43PM 45.4910 -68.6790 38° Northeast 575 662 35,000  Level FlightAware
10:44PM 45.5880 -68.5660 39° Northeast 578 665 35,000  Level FlightAware
10:44PM 45.6590 -68.4850 39° Northeast 580 667 35,000  Level FlightAware
10:45PM 45.7430 -68.3890 39° Northeast 581 669 35,000  Level FlightAware
10:46PM 45.8360 -68.2810 39° Northeast 581 669 35,000  Level FlightAware
10:46PM 45.9210 -68.1830 39° Northeast 583 671 35,000  Level FlightAware
10:47PM 46.0050 -68.0840 39° Northeast 584 672 35,000  Level FlightAware
10:48PM 46.0980 -67.9760 39° Northeast 585 673 35,000  Level FlightAware
10:48PM 46.1740 -67.8860 39° Northeast 585 673 35,000  Level FlightAware
10:49PM 46.2990 -67.7380 39° Northeast 587 676 35,000  Level FlightAware
10:50PM 46.3660 -67.6590 39° Northeast 589 678 35,000  Level FlightAware
10:51PM 46.4380 -67.5740 39° Northeast 589 678 35,000  Level FlightAware
10:51PM 46.5250 -67.4720 39° Northeast 589 678 35,000  Level FlightAware
10:52PM 46.5900 -67.3960 39° Northeast 589 678 35,000  Level FlightAware
10:53PM 46.6540 -67.3200 39° Northeast 589 678 35,000  Level FlightAware
10:53PM 46.7410 -67.2170 39° Northeast 589 678 35,000  Level FlightAware
10:54PM 46.8060 -67.1410 39° Northeast 589 678 35,000  Level FlightAware
10:55PM 46.8920 -67.0380 39° Northeast 589 678 35,000  Level FlightAware
10:55PM 46.9570 -66.9620 39° Northeast 589 678 35,000  Level FlightAware
10:56PM 47.0430 -66.8590 39° Northeast 589 678 35,000  Level FlightAware
10:57PM 47.1080 -66.7820 39° Northeast 589 678 35,000  Level FlightAware
10:57PM 47.1730 -66.7050 39° Northeast 589 678 35,000  Level FlightAware
10:58PM 47.2810 -66.5760 39° Northeast 589 678 35,000  Level FlightAware
10:59PM 47.3690 -66.4710 39° Northeast 589 678 35,000  Level FlightAware
11:00PM 47.4340 -66.3930 39° Northeast 589 678 35,000  Level FlightAware
11:01PM 47.7000 -65.9333 39° Northeast 590 679 35,000  Level Gander Center
11:02PM 47.8000 -65.7667 48° Northeast 590 679 35,000  Level Gander Center
11:03PM 47.9333 -65.6000 40° Northeast 590 679 35,000  Level Gander Center
11:04PM 48.0500 -65.4333 44° Northeast 590 679 35,000  Level Gander Center
11:05PM 48.1667 -65.2667 44° Northeast 580 667 35,000  Level Gander Center
11:06PM 48.2833 -65.1000 44° Northeast 590 679 35,000  Level Gander Center
11:07PM 48.4000 -64.9333 43° Northeast 580 667 35,000  Level Gander Center
11:08PM 48.5333 -64.7667 40° Northeast 590 679 35,000  Level Gander Center
11:09PM 48.6333 -64.6000 48° Northeast 590 679 35,000  Level Gander Center
11:10PM 48.7500 -64.4000 48° Northeast 590 679 35,000  Level Gander Center
11:11PM 48.8833 -64.2500 36° Northeast 590 679 35,000  Level Gander Center
11:12PM 49.0000 -64.0667 46° Northeast 590 679 35,000  Level Gander Center
11:13PM 49.1000 -63.9167 44° Northeast 590 679 35,000  Level Gander Center
11:14PM 49.2167 -63.7167 48° Northeast 590 679 35,000  Level Gander Center
11:15PM 49.3500 -63.5333 42° Northeast 590 679 35,000  Level Gander Center
11:16PM 49.4500 -63.3667 47° Northeast 590 679 35,000  Level Gander Center
11:17PM 49.5667 -63.1833 46° Northeast 580 667 35,000  Level Gander Center
11:18PM 49.6833 -63.0167 43° Northeast 580 667 35,000  Level Gander Center
11:19PM 49.8000 -62.8333 45° Northeast 590 679 35,000  Level Gander Center
11:20PM 49.9167 -62.6500 45° Northeast 590 679 35,000  Level Gander Center
11:21PM 50.0333 -62.4833 43° Northeast 590 679 35,000  Level Gander Center
11:22PM 50.1500 -62.3000 45° Northeast 580 667 35,000  Level Gander Center
11:23PM 50.2667 -62.1167 45° Northeast 580 667 35,000  Level Gander Center
11:24PM 50.4167 -61.8500 49° Northeast 590 679 35,000  Level Moncton Center
11:25PM 50.5500 -61.6500 44° Northeast 580 667 35,000  Level Moncton Center
11:26PM 50.6500 -61.5000 44° Northeast 580 667 35,000  Level Moncton Center
11:27PM 50.7500 -61.3000 52° Northeast 580 667 35,000  Level Moncton Center
11:28PM 50.8667 -61.1000 47° Northeast 590 679 35,000  Level Moncton Center
11:29PM 50.9833 -60.9167 45° Northeast 590 679 35,000  Level Moncton Center
11:30PM 51.1000 -60.7500 42° Northeast 580 667 35,000  Level Moncton Center
11:31PM 51.2000 -60.5500 51° Northeast 590 679 35,000  Level Moncton Center
11:32PM 51.3167 -60.3500 47° Northeast 580 667 35,000  Level Moncton Center
11:33PM 51.4167 -60.1500 51° Northeast 580 667 35,000 300 Level Moncton Center
11:34PM 51.5167 -59.9667 49° Northeast 590 679 35,700 480 Climbing Moncton Center
11:35PM 51.6333 -59.7667 47° Northeast 590 679 36,000 120 Climbing Moncton Center
11:36PM 51.7333 -59.5333 55° Northeast 590 679 36,000  Level Moncton Center
11:37PM 51.8333 -59.3333 51° Northeast 590 679 36,000  Level Moncton Center
11:38PM 51.9333 -59.1333 51° Northeast 580 667 36,000  Level Moncton Center
11:39PM 52.0500 -58.9333 46° Northeast 580 667 36,000  Level Moncton Center
11:40PM 52.1333 -58.7167 58° Northeast 580 667 36,000  Level Moncton Center
11:41PM 52.2500 -58.5167 46° Northeast 580 667 36,000  Level Moncton Center
11:42PM 52.3333 -58.3167 56° Northeast 580 667 36,000  Level Moncton Center
11:43PM 52.4333 -58.1167 51° Northeast 580 667 36,000  Level Moncton Center
11:44PM 52.5333 -57.9000 53° Northeast 590 679 36,000  Level Moncton Center
11:45PM 52.6333 -57.6667 55° Northeast 590 679 36,000  Level Moncton Center
11:46PM 52.7333 -57.4500 53° Northeast 590 679 36,000  Level Moncton Center
11:47PM 52.8500 -57.2500 46° Northeast 590 679 36,000  Level Moncton Center
11:48PM 52.9333 -57.0333 57° Northeast 590 679 36,000  Level Moncton Center
11:49PM 53.0333 -56.8000 54° Northeast 590 679 36,000  Level Moncton Center
11:50PM 53.1333 -56.5833 52° Northeast 590 679 36,000  Level Moncton Center
11:51PM 53.2500 -56.3667 48° Northeast 590 679 36,000  Level Moncton Center
11:52PM 53.3333 -56.1500 57° Northeast 590 679 36,000  Level Moncton Center
11:53PM 53.4167 -55.9500 55° Northeast 580 667 36,000  Level Moncton Center
11:54PM 53.5167 -55.7167 54° Northeast 580 667 36,000  Level Moncton Center
11:55PM 53.6167 -55.5000 52° Northeast 590 679 36,000  Level Moncton Center
11:56PM 53.7167 -55.2667 54° Northeast 580 667 36,000  Level Moncton Center
11:57PM 53.8000 -55.0333 59° Northeast 580 667 36,000  Level Moncton Center
11:58PM 53.8667 -54.8000 64° Northeast 580 667 36,000  Level Moncton Center
11:59PM 53.9333 -54.5500 66° East 580 667 36,000  Level Moncton Center
12:00AM 53.9833 -54.2833 72° East 570 656 36,000  Level Moncton Center
12:01AM 54.0500 -54.0500 64° Northeast 580 667 36,000  Level Moncton Center
12:03AM 54.1254 -53.7547 66° East  Level FlightAware Approximate
12:10AM 54.5093 -52.1870 67° East  Level FlightAware Approximate
12:11AM 54.5625 -51.9606 68° East  Level FlightAware Approximate
12:12AM 54.6153 -51.7337 68° East  Level FlightAware Approximate
12:13AM 54.6676 -51.5062 68° East  Level FlightAware Approximate
12:14AM 54.7195 -51.2781 68° East  Level FlightAware Approximate
12:15AM 54.7710 -51.0494 69° East  Level FlightAware Approximate
12:16AM 54.8220 -50.8201 69° East  Level FlightAware Approximate
12:17AM 54.8726 -50.5902 69° East  Level FlightAware Approximate
12:18AM 54.9228 -50.3598 69° East  Level FlightAware Approximate
12:19AM 54.9725 -50.1288 69° East  Level FlightAware Approximate
12:20AM 55.0154 -49.8928 76° East  Level FlightAware Approximate
12:21AM 55.0495 -49.6529 76° East  Level FlightAware Approximate
12:22AM 55.0831 -49.4125 76° East  Level FlightAware Approximate
12:23AM 55.1163 -49.1718 76° East  Level FlightAware Approximate
12:24AM 55.1489 -48.9306 77° East  Level FlightAware Approximate
12:25AM 55.1811 -48.6891 77° East  Level FlightAware Approximate
12:26AM 55.2129 -48.4471 77° East  Level FlightAware Approximate
12:27AM 55.2441 -48.2048 77° East  Level FlightAware Approximate
12:28AM 55.2749 -47.9621 77° East  Level FlightAware Approximate
12:29AM 55.3051 -47.7191 78° East  Level FlightAware Approximate
12:30AM 55.3349 -47.4756 78° East  Level FlightAware Approximate
12:31AM 55.3642 -47.2318 78° East  Level FlightAware Approximate
12:32AM 55.3931 -46.9877 78° East  Level FlightAware Approximate
12:33AM 55.4214 -46.7432 78° East  Level FlightAware Approximate
12:34AM 55.4492 -46.4983 79° East  Level FlightAware Approximate
12:35AM 55.4766 -46.2531 79° East  Level FlightAware Approximate
12:36AM 55.5035 -46.0076 79° East  Level FlightAware Approximate
12:37AM 55.5299 -45.7617 79° East  Level FlightAware Approximate
12:38AM 55.5557 -45.5155 79° East  Level FlightAware Approximate
12:39AM 55.5811 -45.2690 80° East  Level FlightAware Approximate
12:40AM 55.6050 -45.0319 80° East  Level FlightAware Approximate
12:41AM 55.6285 -44.7945 80° East  Level FlightAware Approximate
12:42AM 55.6515 -44.5568 80° East  Level FlightAware Approximate
12:43AM 55.6741 -44.3189 80° East  Level FlightAware Approximate
12:44AM 55.6962 -44.0807 81° East  Level FlightAware Approximate
12:45AM 55.7178 -43.8422 81° East  Level FlightAware Approximate
12:46AM 55.7389 -43.6035 81° East  Level FlightAware Approximate
12:47AM 55.7596 -43.3645 81° East  Level FlightAware Approximate
12:48AM 55.7799 -43.1252 81° East  Level FlightAware Approximate
12:49AM 55.7996 -42.8857 82° East  Level FlightAware Approximate
12:50AM 55.8189 -42.6460 82° East  Level FlightAware Approximate
12:51AM 55.8378 -42.4060 82° East  Level FlightAware Approximate
12:52AM 55.8562 -42.1658 82° East  Level FlightAware Approximate
12:53AM 55.8741 -41.9254 82° East  Level FlightAware Approximate
12:54AM 55.8915 -41.6847 83° East  Level FlightAware Approximate
12:55AM 55.9084 -41.4439 83° East  Level FlightAware Approximate
12:56AM 55.9249 -41.2028 83° East  Level FlightAware Approximate
12:57AM 55.9409 -40.9616 83° East  Level FlightAware Approximate
12:58AM 55.9565 -40.7201 83° East  Level FlightAware Approximate
12:59AM 55.9716 -40.4778 84° East  Level FlightAware Approximate
01:00AM 55.9863 -40.2353 84° East  Level FlightAware Approximate
01:01AM 56.0010 -39.9928 76° East  Level FlightAware Approximate
01:02AM 56.0348 -39.7563 76° East  Level FlightAware Approximate
01:03AM 56.0680 -39.5193 76° East  Level FlightAware Approximate
01:04AM 56.1009 -39.2819 76° East  Level FlightAware Approximate
01:05AM 56.1332 -39.0441 76° East  Level FlightAware Approximate
01:06AM 56.1651 -38.8060 76° East  Level FlightAware Approximate
01:07AM 56.1966 -38.5674 77° East  Level FlightAware Approximate
01:08AM 56.2276 -38.3284 77° East  Level FlightAware Approximate
01:09AM 56.2581 -38.0891 77° East  Level FlightAware Approximate
01:10AM 56.2882 -37.8493 77° East  Level FlightAware Approximate
01:11AM 56.3178 -37.6092 77° East  Level FlightAware Approximate
01:12AM 56.3469 -37.3688 78° East  Level FlightAware Approximate
01:13AM 56.3756 -37.1279 78° East  Level FlightAware Approximate
01:14AM 56.4038 -36.8867 78° East  Level FlightAware Approximate
01:15AM 56.4316 -36.6452 78° East  Level FlightAware Approximate
01:16AM 56.4588 -36.4033 78° East  Level FlightAware Approximate
01:17AM 56.4856 -36.1610 79° East  Level FlightAware Approximate
01:18AM 56.5120 -35.9185 79° East  Level FlightAware Approximate
01:19AM 56.5378 -35.6755 79° East  Level FlightAware Approximate
01:20AM 56.5632 -35.4323 79° East  Level FlightAware Approximate
01:21AM 56.5881 -35.1887 79° East  Level FlightAware Approximate
01:22AM 56.6125 -34.9448 80° East  Level FlightAware Approximate
01:23AM 56.6365 -34.7006 80° East  Level FlightAware Approximate
01:24AM 56.6600 -34.4561 80° East  Level FlightAware Approximate
01:25AM 56.6829 -34.2113 80° East  Level FlightAware Approximate
01:26AM 56.7054 -33.9662 80° East  Level FlightAware Approximate
01:27AM 56.7275 -33.7208 81° East  Level FlightAware Approximate
01:28AM 56.7490 -33.4751 81° East  Level FlightAware Approximate
01:29AM 56.7701 -33.2292 81° East  Level FlightAware Approximate
01:30AM 56.7907 -32.9829 81° East  Level FlightAware Approximate
01:31AM 56.8107 -32.7364 81° East  Level FlightAware Approximate
01:32AM 56.8304 -32.4897 82° East  Level FlightAware Approximate
01:33AM 56.8495 -32.2426 82° East  Level FlightAware Approximate
01:34AM 56.8681 -31.9954 82° East  Level FlightAware Approximate
01:35AM 56.8862 -31.7479 82° East  Level FlightAware Approximate
01:36AM 56.9039 -31.5001 82° East  Level FlightAware Approximate
01:37AM 56.9211 -31.2521 83° East  Level FlightAware Approximate
01:38AM 56.9376 -31.0053 83° East  Level FlightAware Approximate
01:39AM 56.9537 -30.7582 83° East  Level FlightAware Approximate
01:40AM 56.9693 -30.5109 83° East  Level FlightAware Approximate
01:41AM 56.9845 -30.2633 84° East  Level FlightAware Approximate
01:42AM 56.9991 -30.0156 84° East  Level FlightAware Approximate
01:43AM 57.0085 -29.7670 86° East  Level FlightAware Approximate
01:44AM 57.0171 -29.5182 86° East  Level FlightAware Approximate
01:45AM 57.0252 -29.2693 86° East  Level FlightAware Approximate
01:46AM 57.0328 -29.0203 87° East  Level FlightAware Approximate
01:47AM 57.0400 -28.7712 87° East  Level FlightAware Approximate
01:48AM 57.0466 -28.5219 87° East  Level FlightAware Approximate
01:49AM 57.0527 -28.2726 87° East  Level FlightAware Approximate
01:50AM 57.0583 -28.0233 88° East  Level FlightAware Approximate
01:51AM 57.0635 -27.7738 88° East  Level FlightAware Approximate
01:52AM 57.0681 -27.5243 88° East  Level FlightAware Approximate
01:53AM 57.0723 -27.2747 88° East  Level FlightAware Approximate
01:54AM 57.0759 -27.0251 88° East  Level FlightAware Approximate
01:55AM 57.0791 -26.7754 89° East  Level FlightAware Approximate
01:56AM 57.0817 -26.5257 89° East  Level FlightAware Approximate
01:57AM 57.0839 -26.2760 89° East  Level FlightAware Approximate
01:58AM 57.0855 -26.0262 89° East  Level FlightAware Approximate
01:59AM 57.0867 -25.7764 89° East  Level FlightAware Approximate
02:00AM 57.0874 -25.5266 90° East  Level FlightAware Approximate
02:01AM 57.0876 -25.2768 90° East  Level FlightAware Approximate
02:02AM 57.0872 -25.0270 90° East  Level FlightAware Approximate
02:03AM 57.0864 -24.7772 90° East  Level FlightAware Approximate
02:04AM 57.0851 -24.5275 90° East  Level FlightAware Approximate
02:05AM 57.0833 -24.2777 91° East  Level FlightAware Approximate
02:06AM 57.0816 -24.0280 91° East  Level FlightAware Approximate
02:07AM 57.0793 -23.7782 91° East  Level FlightAware Approximate
02:08AM 57.0766 -23.5285 91° East  Level FlightAware Approximate
02:09AM 57.0734 -23.2789 91° East  Level FlightAware Approximate
02:10AM 57.0696 -23.0293 91° East  Level FlightAware Approximate
02:11AM 57.0658 -22.7797 91° East  Level FlightAware Approximate
02:12AM 57.0624 -22.5301 91° East  Level FlightAware Approximate
02:13AM 57.0585 -22.2806 92° East  Level FlightAware Approximate
02:14AM 57.0542 -22.0312 92° East  Level FlightAware Approximate
02:15AM 57.0493 -21.7818 92° East  Level FlightAware Approximate
02:16AM 57.0439 -21.5324 92° East  Level FlightAware Approximate
02:17AM 57.0381 -21.2832 92° East  Level FlightAware Approximate
02:18AM 57.0317 -21.0340 93° East  Level FlightAware Approximate
02:19AM 57.0248 -20.7849 93° East  Level FlightAware Approximate
02:20AM 57.0175 -20.5359 93° East  Level FlightAware Approximate
02:21AM 57.0097 -20.2870 93° East  Level FlightAware Approximate
02:22AM 57.0013 -20.0382 93° East  Level FlightAware Approximate
02:23AM 56.9729 -19.7951 104° East  Level FlightAware Approximate
02:24AM 56.9404 -19.5534 104° East  Level FlightAware Approximate
02:25AM 56.9075 -19.3122 104° East  Level FlightAware Approximate
02:26AM 56.8741 -19.0713 104° East  Level FlightAware Approximate
02:27AM 56.8402 -18.8309 104° East  Level FlightAware Approximate
02:28AM 56.8059 -18.5909 105° East  Level FlightAware Approximate
02:29AM 56.7711 -18.3514 105° East  Level FlightAware Approximate
02:30AM 56.7358 -18.1123 105° East  Level FlightAware Approximate
02:31AM 56.7001 -17.8737 105° East  Level FlightAware Approximate
02:32AM 56.6640 -17.6355 105° East  Level FlightAware Approximate
02:33AM 56.6274 -17.3978 106° East  Level FlightAware Approximate
02:34AM 56.5903 -17.1605 106° East  Level FlightAware Approximate
02:35AM 56.5528 -16.9237 106° East  Level FlightAware Approximate
02:36AM 56.5148 -16.6874 106° East  Level FlightAware Approximate
02:37AM 56.4764 -16.4516 106° East  Level FlightAware Approximate
02:38AM 56.4376 -16.2162 107° East  Level FlightAware Approximate
02:39AM 56.3983 -15.9813 107° East  Level FlightAware Approximate
02:40AM 56.3585 -15.7469 107° East  Level FlightAware Approximate
02:41AM 56.3182 -15.5131 107° East  Level FlightAware Approximate
02:42AM 56.2774 -15.2798 107° East  Level FlightAware Approximate
02:43AM 56.2361 -15.0470 108° East  Level FlightAware Approximate
02:44AM 56.1944 -14.8148 108° East  Level FlightAware Approximate
02:45AM 56.1522 -14.5830 108° East  Level FlightAware Approximate
02:46AM 56.1096 -14.3518 108° East  Level FlightAware Approximate
02:47AM 56.0666 -14.1210 108° East  Level FlightAware Approximate
02:48AM 56.0232 -13.8908 109° East  Level FlightAware Approximate
02:49AM 55.9793 -13.6611 109° East  Level FlightAware Approximate
02:50AM 55.9350 -13.4319 109° East  Level FlightAware Approximate
02:50AM 56.4920 -12.3330 109° East 473 544 37,000  Level FlightAware
02:51AM 55.8902 -13.2033 109° East  Level FlightAware Approximate
02:51AM 56.4520 -12.1800 115° Southeast 471 542 37,000  Level FlightAware
02:52AM 56.4100 -12.0220 116° Southeast 468 539 37,000  Level FlightAware
02:52AM 56.3760 -11.8960 116° Southeast 467 537 37,000  Level FlightAware
02:53AM 56.3290 -11.7200 116° Southeast 467 537 37,000  Level FlightAware
02:54AM 56.2860 -11.5620 116° Southeast 470 541 37,000  Level FlightAware
02:55AM 56.2540 -11.4420 116° Southeast 465 535 37,000  Level FlightAware
02:56AM 56.2000 -11.2530 117° Southeast 463 533 37,000  Level FlightAware
02:56AM 56.1540 -11.0950 118° Southeast 462 532 37,000  Level FlightAware
02:57AM 56.1140 -10.9610 118° Southeast 463 533 37,000  Level FlightAware
02:58AM 56.0690 -10.8080 118° Southeast 462 532 37,000  Level FlightAware
02:58AM 56.0350 -10.6910 117° Southeast 461 531 37,000  Level FlightAware
02:59AM 55.9890 -10.5370 118° Southeast 460 529 37,000  Level FlightAware
03:00AM 55.9400 -10.3720 118° Southeast 461 531 37,000  Level FlightAware
03:00AM 55.9070 -10.2650 119° Southeast 462 532 37,000  Level FlightAware
03:03AM 55.7580 -9.7800 118° Southeast 459 528 37,000  Level FlightAware
03:04AM 55.7200 -9.6590 119° Southeast 452 520 37,000  Level FlightAware
03:04AM 55.6700 -9.4980 119° Southeast 447 514 37,000  Level FlightAware
03:05AM 55.6360 -9.3900 119° Southeast 446 513 37,000  Level FlightAware
03:06AM 55.5950 -9.2590 119° Southeast 447 514 37,000  Level FlightAware
03:06AM 55.5640 -9.1620 119° Southeast 447 514 37,000  Level FlightAware
03:07AM 55.5210 -9.0280 120° Southeast 448 516 37,000  Level FlightAware
03:07AM 55.4790 -8.8970 119° Southeast 455 524 37,000  Level FlightAware
03:08AM 55.4410 -8.7760 119° Southeast 455 524 37,000  Level FlightAware
03:09AM 55.3870 -8.6100 120° Southeast 454 522 37,000  Level FlightAware
03:10AM 55.3450 -8.4820 120° Southeast 453 521 37,000  Level FlightAware
03:10AM 55.3100 -8.3760 120° Southeast 453 521 37,000  Level FlightAware
03:11AM 55.2660 -8.2420 120° Southeast 453 521 37,000  Level FlightAware
03:12AM 55.2190 -8.1010 120° Southeast 453 521 37,000  Level FlightAware
03:12AM 55.1880 -8.0060 120° Southeast 453 521 37,000  Level FlightAware
03:13AM 55.1400 -7.8620 120° Southeast 454 522 37,000  Level FlightAware
03:13AM 55.0980 -7.7370 120° Southeast 451 519 37,000  Level FlightAware
03:14AM 55.0500 -7.5970 121° Southeast 451 519 37,000  Level FlightAware
03:15AM 55.0080 -7.4710 120° Southeast 451 519 37,000  Level FlightAware
03:16AM 54.9600 -7.3310 121° Southeast 449 517 37,000  Level FlightAware
03:16AM 54.9170 -7.2060 121° Southeast 450 518 37,000  Level FlightAware
03:17AM 54.8790 -7.0970 121° Southeast 449 517 37,000  Level FlightAware
03:18AM 54.8360 -6.9720 121° Southeast 448 516 37,000  Level FlightAware
03:18AM 54.7880 -6.8330 121° Southeast 449 517 37,000  Level FlightAware
03:19AM 54.7500 -6.7250 121° Southeast 450 518 37,000  Level FlightAware
03:19AM 54.7160 -6.6300 122° Southeast 451 519 37,000  Level FlightAware
03:20AM 54.6680 -6.4930 121° Southeast 458 527 37,000  Level FlightAware
03:21AM 54.6360 -6.4030 122° Southeast 458 527 37,000  Level FlightAware
03:21AM 54.5840 -6.2590 122° Southeast 457 526 37,000  Level FlightAware
03:22AM 54.5330 -6.1160 122° Southeast 457 526 37,000  Level FlightAware
03:23AM 54.4890 -5.9950 122° Southeast 456 525 37,000  Level FlightAware
03:24AM 54.4380 -5.8550 122° Southeast 457 526 37,000  Level FlightAware
03:24AM 54.4040 -5.7610 122° Southeast 456 525 37,000  Level FlightAware
03:25AM 54.3540 -5.6230 122° Southeast 455 524 37,000  Level FlightAware
03:25AM 54.3150 -5.5170 122° Southeast 455 524 37,000  Level FlightAware
03:26AM 54.2580 -5.3640 122° Southeast 458 527 37,000 -120 Level FlightAware
03:27AM 54.2120 -5.2410 123° Southeast 458 527 36,900 -720 Descending FlightAware
03:28AM 54.1680 -5.1220 122° Southeast 455 524 36,100 -660 Descending FlightAware
03:28AM 54.1170 -4.9870 123° Southeast 453 521 36,000 -120 Descending FlightAware
03:29AM 54.0710 -4.8660 123° Southeast 453 521 36,000  Level FlightAware
03:30AM 54.0260 -4.7480 123° Southeast 450 518 36,000  Level FlightAware
03:30AM 53.9750 -4.6130 123° Southeast 450 518 36,000  Level FlightAware
03:31AM 53.9290 -4.4940 123° Southeast 449 517 36,000  Level FlightAware
03:32AM 53.8780 -4.3610 123° Southeast 450 518 36,000  Level FlightAware
03:33AM 53.8320 -4.2430 123° Southeast 447 514 36,000  Level FlightAware
03:33AM 53.7930 -4.1440 124° Southeast 447 514 36,000  Level FlightAware
03:34AM 53.7410 -4.0090 123° Southeast 446 513 36,000  Level FlightAware
03:35AM 53.6950 -3.8930 124° Southeast 448 516 36,000  Level FlightAware
03:35AM 53.6540 -3.7890 124° Southeast 449 517 36,000  Level FlightAware
03:36AM 53.6080 -3.6720 123° Southeast 448 516 36,000  Level FlightAware
03:37AM 53.5475 -3.5205 124° Southeast 454 522 36,000  Level FlightAware ADS-B
03:37AM 53.5086 -3.4236 124° Southeast 455 524 36,000  Level FlightAware ADS-B
03:38AM 53.4729 -3.3347 124° Southeast 457 526 36,000  Level FlightAware ADS-B
03:38AM 53.4353 -3.2414 124° Southeast 454 522 36,000  Level FlightAware ADS-B
03:39AM 53.3981 -3.1495 124° Southeast 455 524 36,000  Level FlightAware ADS-B
03:39AM 53.3608 -3.0615 125° Southeast 454 522 36,000  Level FlightAware ADS-B
03:40AM 53.3207 -2.9735 127° Southeast 454 522 36,000 -180 Level FlightAware ADS-B
03:40AM 53.2764 -2.8758 127° Southeast 458 527 35,800 -720 Descending FlightAware ADS-B
03:41AM 53.2095 -2.7353 128° Southeast 461 531 35,000 -1,020 Descending FlightAware ADS-B
03:42AM 53.1540 -2.6574 140° Southeast 451 519 34,400 -960 Descending FlightAware ADS-B
03:42AM 53.1037 -2.5935 143° Southeast 451 519 34,000 -420 Descending FlightAware ADS-B
03:43AM 53.0524 -2.5280 143° Southeast 458 527 34,000  Level FlightAware ADS-B
03:43AM 52.9974 -2.4568 142° Southeast 459 528 34,000  Level FlightAware ADS-B
03:44AM 52.9399 -2.3815 142° Southeast 459 528 34,000 -660 Level FlightAware ADS-B
03:45AM 52.8730 -2.2945 142° Southeast 453 521 33,200 -1,140 Descending FlightAware ADS-B
03:45AM 52.8224 -2.2291 142° Southeast 451 519 32,700 -1,080 Descending FlightAware ADS-B
03:46AM 52.7717 -2.1640 142° Southeast 445 512 32,100 -1,620 Descending FlightAware ADS-B
03:46AM 52.7206 -2.0988 142° Southeast 436 502 31,000 -2,100 Descending FlightAware ADS-B
03:47AM 52.6708 -2.0355 142° Southeast 429 494 29,900 -2,100 Descending FlightAware ADS-B
03:47AM 52.6240 -1.9761 142° Southeast 423 487 28,900 -1,920 Descending FlightAware ADS-B
03:48AM 52.5697 -1.9076 142° Southeast 415 478 27,800 -1,920 Descending FlightAware ADS-B
03:48AM 52.5238 -1.8496 142° Southeast 410 472 26,800 -2,040 Descending FlightAware ADS-B
03:49AM 52.4915 -1.8038 139° Southeast 405 466 26,000 -1,980 Descending FlightAware ADS-B
03:49AM 52.4512 -1.7402 136° Southeast 399 459 25,100 -1,920 Descending FlightAware ADS-B
03:50AM 52.4113 -1.6771 136° Southeast 392 451 24,100 -1,920 Descending FlightAware ADS-B
03:50AM 52.3719 -1.6151 136° Southeast 388 447 23,200 -1,920 Descending FlightAware ADS-B
03:51AM 52.3329 -1.5542 136° Southeast 382 440 22,200 -1,920 Descending FlightAware ADS-B
03:51AM 52.2921 -1.4901 136° Southeast 376 433 21,200 -1,860 Descending FlightAware ADS-B
03:52AM 52.2546 -1.4312 136° Southeast 371 427 20,300 -1,500 Descending FlightAware ADS-B
03:52AM 52.2166 -1.3715 136° Southeast 365 420 19,700 -1,200 Descending FlightAware ADS-B
03:53AM 52.1800 -1.3141 136° Southeast 363 418 19,100 -1,320 Descending FlightAware ADS-B
03:53AM 52.1437 -1.2574 136° Southeast 362 417 18,400 -1,380 Descending FlightAware ADS-B
03:53AM 52.1352 -1.2455 139° Southeast 361 415 18,300 -1,440 Descending FlightAware ADS-B
03:54AM 52.1208 -1.2286 144° Southeast 359 413 18,000 -1,800 Descending FlightAware ADS-B
03:54AM 52.0789 -1.1843 147° Southeast 358 412 17,100 -1,980 Descending FlightAware ADS-B
03:55AM 52.0351 -1.1383 147° Southeast 360 414 16,000 -2,040 Descending FlightAware ADS-B
03:55AM 51.9924 -1.0938 147° Southeast 360 414 15,000 -2,100 Descending FlightAware ADS-B
03:56AM 51.9499 -1.0502 148° Southeast 359 413 13,900 -1,680 Descending FlightAware ADS-B
03:56AM 51.9086 -1.0077 148° Southeast 347 399 13,300 -1,200 Descending FlightAware ADS-B
03:56AM 51.8947 -0.9888 140° Southeast 342 394 13,100 -960 Descending FlightAware ADS-B
03:56AM 51.8860 -0.9740 133° Southeast 337 388 13,000 -900 Descending FlightAware ADS-B
03:57AM 51.8801 -0.9621 129° Southeast 334 384 12,900 -1,080 Descending FlightAware ADS-B
03:57AM 51.8708 -0.9404 125° Southeast 330 380 12,700 -1,200 Descending FlightAware ADS-B
03:57AM 51.8476 -0.8769 121° Southeast 318 366 12,100 -720 Descending FlightAware ADS-B
03:58AM 51.8256 -0.8168 121° Southeast 295 339 12,000 -120 Descending FlightAware ADS-B
03:58AM 51.8065 -0.7651 121° Southeast 267 307 12,000  Level FlightAware ADS-B
03:59AM 51.7879 -0.7149 121° Southeast 257 296 12,000  Level FlightAware ADS-B
03:59AM 51.7708 -0.6694 121° Southeast 257 296 12,000 -120 Level FlightAware ADS-B
04:00AM 51.7523 -0.6199 121° Southeast 256 295 11,900 -540 Descending FlightAware ADS-B
04:00AM 51.7413 -0.5911 122° Southeast 253 291 11,600 -1,020 Descending FlightAware ADS-B
04:00AM 51.7364 -0.5812 129° Southeast 253 291 11,500 -1,200 Descending FlightAware ADS-B
04:00AM 51.7334 -0.5768 138° Southeast 252 290 11,400 -900 Descending FlightAware ADS-B
04:00AM 51.7301 -0.5728 144° Southeast 251 289 11,400 -900 Level FlightAware ADS-B
04:00AM 51.7267 -0.5697 150° Southeast 251 289 11,300 -720 Descending FlightAware ADS-B
04:00AM 51.7214 -0.5663 158° South 250 288 11,300 -1,140 Level FlightAware ADS-B
04:00AM 51.7136 -0.5639 169° South 253 291 11,100 -1,140 Descending FlightAware ADS-B
04:01AM 51.6774 -0.5628 179° South 255 293 10,600 -1,260 Descending FlightAware ADS-B
04:01AM 51.6502 -0.5622 179° South 253 291 10,000 -1,620 Descending FlightAware ADS-B
04:02AM 51.6324 -0.5614 179° South 253 291 9,600 -1,560 Descending FlightAware ADS-B
04:02AM 51.6145 -0.5607 178° South 252 290 9,200 -1,320 Descending FlightAware ADS-B
04:02AM 51.5958 -0.5601 179° South 251 289 8,900 -1,500 Descending FlightAware ADS-B
04:02AM 51.5858 -0.5599 179° South 251 289 8,600 -2,220 Descending FlightAware ADS-B
04:02AM 51.5824 -0.5601 182° South 251 289 8,500 -1,740 Descending FlightAware ADS-B
04:02AM 51.5778 -0.5611 188° South 252 290 8,400 -780 Descending FlightAware ADS-B
04:02AM 51.5739 -0.5627 195° South 252 290 8,400 -780 Level FlightAware ADS-B
04:03AM 51.5696 -0.5653 201° Southwest 252 290 8,300 -900 Descending FlightAware ADS-B
04:03AM 51.5658 -0.5687 209° Southwest 252 290 8,300 -1,020 Level FlightAware ADS-B
04:03AM 51.5629 -0.5720 216° Southwest 253 291 8,200 -900 Descending FlightAware ADS-B
04:03AM 51.5601 -0.5759 221° Southwest 253 291 8,200 -780 Level FlightAware ADS-B
04:03AM 51.5569 -0.5814 227° Southwest 254 292 8,100 -1,740 Descending FlightAware ADS-B
04:03AM 51.5548 -0.5862 235° Southwest 255 293 8,000 -1,020 Descending FlightAware ADS-B
04:03AM 51.5529 -0.5918 241° Southwest 255 293 8,000 -900 Level FlightAware ADS-B
04:03AM 51.5512 -0.5979 246° West 256 295 7,900 -1,500 Descending FlightAware ADS-B
04:03AM 51.5500 -0.6052 255° West 257 296 7,800 -780 Descending FlightAware ADS-B
04:03AM 51.5493 -0.6132 262° West 258 297 7,800 -780 Level FlightAware ADS-B
04:03AM 51.5493 -0.6204 270° West 258 297 7,700 -1,740 Descending FlightAware ADS-B
04:03AM 51.5496 -0.6273 274° West 259 298 7,600 -1,020 Descending FlightAware ADS-B
04:03AM 51.5501 -0.6332 278° West 259 298 7,600 -1,440 Level FlightAware ADS-B
04:03AM 51.5526 -0.6586 279° West 261 300 7,200 -1,500 Descending FlightAware ADS-B
04:04AM 51.5558 -0.6870 280° West 260 299 6,900 -1,200 Descending FlightAware ADS-B
04:04AM 51.5590 -0.7160 280° West 260 299 6,600 -1,200 Descending FlightAware ADS-B
04:04AM 51.5619 -0.7446 279° West 258 297 6,300 -1,200 Descending FlightAware ADS-B
04:04AM 51.5627 -0.7554 277° West 258 297 6,200 -1,500 Descending FlightAware ADS-B
04:04AM 51.5630 -0.7681 272° West 257 296 6,000 -1,320 Descending FlightAware ADS-B
04:05AM 51.5627 -0.7824 268° West 256 295 5,900 -1,200 Descending FlightAware ADS-B
04:05AM 51.5616 -0.8073 266° West 256 295 5,600 -1,320 Descending FlightAware ADS-B
04:05AM 51.5599 -0.8365 265° West 254 292 5,300 -960 Descending FlightAware ADS-B
04:05AM 51.5585 -0.8568 264° West 251 289 5,200 -840 Descending FlightAware ADS-B
04:05AM 51.5577 -0.8642 260° West 249 287 5,100 -780 Descending FlightAware ADS-B
04:05AM 51.5566 -0.8712 256° West 248 285 5,100 -720 Level FlightAware ADS-B
04:05AM 51.5551 -0.8800 255° West 246 283 5,000 -900 Descending FlightAware ADS-B
04:06AM 51.5495 -0.9060 251° West 241 277 4,800 -840 Descending FlightAware ADS-B
04:06AM 51.5470 -0.9156 247° West 241 277 4,700 -720 Descending FlightAware ADS-B
04:06AM 51.5450 -0.9219 243° Southwest 239 275 4,700 -900 Level FlightAware ADS-B
04:06AM 51.5425 -0.9277 235° Southwest 237 273 4,600 -1,380 Descending FlightAware ADS-B
04:06AM 51.5393 -0.9333 228° Southwest 234 269 4,500 -720 Descending FlightAware ADS-B
04:06AM 51.5356 -0.9380 218° Southwest 231 266 4,500 -900 Level FlightAware ADS-B
04:06AM 51.5328 -0.9406 210° Southwest 229 264 4,400 -900 Descending FlightAware ADS-B
04:06AM 51.5296 -0.9428 203° Southwest 226 260 4,400 -600 Level FlightAware ADS-B
04:06AM 51.5238 -0.9450 193° South 221 254 4,300 -720 Descending FlightAware ADS-B
04:06AM 51.5208 -0.9453 184° South 219 252 4,300 -900 Level FlightAware ADS-B
04:06AM 51.5169 -0.9448 175° South 214 246 4,200 -780 Descending FlightAware ADS-B
04:06AM 51.5125 -0.9428 164° South 209 241 4,200 -720 Level FlightAware ADS-B
04:07AM 51.5084 -0.9393 152° Southeast 205 236 4,100 -600 Descending FlightAware ADS-B
04:07AM 51.5052 -0.9353 142° Southeast 202 232 4,100 -720 Level FlightAware ADS-B
04:07AM 51.5028 -0.9310 132° Southeast 200 230 4,000 -780 Descending FlightAware ADS-B
04:07AM 51.5006 -0.9264 128° Southeast 197 227 4,000 -900 Level FlightAware ADS-B
04:07AM 51.4989 -0.9223 123° Southeast 196 226 3,900 -720 Descending FlightAware ADS-B
04:07AM 51.4920 -0.9037 121° Southeast 188 216 3,800 -300 Descending FlightAware ADS-B
04:07AM 51.4897 -0.8975 121° Southeast 187 215 3,800 -300 Level FlightAware ADS-B
04:07AM 51.4829 -0.8796 121° Southeast 186 214 3,700 -600 Descending FlightAware ADS-B
04:07AM 51.4804 -0.8727 120° Southeast 187 215 3,600 -1,200 Descending FlightAware ADS-B
04:08AM 51.4790 -0.8676 114° Southeast 187 215 3,500 -780 Descending FlightAware ADS-B
04:08AM 51.4781 -0.8631 108° East 188 216 3,500  Level FlightAware ADS-B
04:08AM 51.4772 -0.8566 103° East 189 217 3,500 -780 Level FlightAware ADS-B
04:08AM 51.4768 -0.8520 98° East 189 217 3,400 -1,200 Descending FlightAware ADS-B
04:08AM 51.4763 -0.8428 95° East 190 219 3,300 -480 Descending FlightAware ADS-B
04:08AM 51.4763 -0.8341 90° East 191 220 3,300 -300 Level FlightAware ADS-B
04:08AM 51.4762 -0.8131 90° East 189 217 3,200 -240 Descending FlightAware ADS-B
04:08AM 51.4761 -0.7987 91° East 188 216 3,200  Level FlightAware ADS-B
04:09AM 51.4762 -0.7778 90° East 188 216 3,200  Level FlightAware ADS-B
04:09AM 51.4763 -0.7552 90° East 189 217 3,200 -600 Level FlightAware ADS-B
04:09AM 51.4763 -0.7328 90° East 190 219 2,900 -960 Descending FlightAware ADS-B
04:09AM 51.4765 -0.7105 89° East 185 213 2,700 -1,020 Descending FlightAware ADS-B
04:10AM 51.4766 -0.6907 90° East 173 199 2,400 -1,020 Descending FlightAware ADS-B
04:10AM 51.4767 -0.6720 89° East 160 184 2,200 -780 Descending FlightAware ADS-B
04:10AM 51.4768 -0.6529 90° East 156 180 2,000 -780 Descending FlightAware ADS-B
04:10AM 51.4769 -0.6356 89° East 154 177 1,800 -1,020 Descending FlightAware ADS-B
04:11AM 51.4770 -0.6175 89° East 154 177 1,500 -1,020 Descending FlightAware ADS-B
04:11AM 51.4770 -0.6007 90° East 153 176 1,300 -900 Descending FlightAware ADS-B
04:11AM 51.4771 -0.5852 89° East 155 178 1,100 -960 Descending FlightAware ADS-B
04:14AM 51.4775 -0.4614 137° Southeast  Level Estimated
04:14AM 51.4780 -0.4720 137° Southeast 142 163  Level FlightAware